ESMK/KID METAR and TAF weather

Enter ICAO airport designator
Station Type Date Time Source
ESMK METAR 2020/04/09 19:50 UTC NOAA

ESMK 091950Z AUTO 25008KT 9999 NCD 05/M04 Q1023


Station Type Date Time Source
ESMK Decoded METAR 2020/04/09 19:50 UTC NOAA

Kristianstad / Everod, Sweden (ESMK) 55-55N 014-05E
Apr 09, 2020 - 03:50 PM EDT / 2020.04.09 1950 UTC
Wind: from the WSW (250 degrees) at 9 MPH (8 KT):0
Visibility: greater than 7 mile(s):0
Temperature: 41 F (5 C)
Dew Point: 24 F (-4 C)
Relative Humidity: 52%
Pressure (altimeter): 30.21 in. Hg (1023 hPa)
ob: ESMK 091950Z AUTO 25008KT 9999 NCD 05/M04 Q1023
cycle: 20

Station Type Date Time Source
ESMK TAF 2015/03/18 12:33 UTC NOAA

TAF ESMK 181130Z 1812/1824 13012KT CAVOK

Example: see airport list